createdAt,value
2023-03-17T00:01:06.869Z,11.40
2023-03-17T00:03:33.346Z,11.40
2023-03-17T00:05:59.859Z,11.30
2023-03-17T00:08:26.321Z,11.30
2023-03-17T00:10:52.809Z,11.20
2023-03-17T00:13:19.270Z,11.30
2023-03-17T00:15:45.797Z,11.30
2023-03-17T00:18:12.289Z,11.40
2023-03-17T00:20:38.759Z,11.30
2023-03-17T00:23:05.221Z,11.40
2023-03-17T00:25:31.694Z,11.40
2023-03-17T00:27:58.171Z,11.30
2023-03-17T00:30:24.652Z,11.30
2023-03-17T00:32:51.159Z,11.40
2023-03-17T00:35:17.662Z,11.40
2023-03-17T00:37:44.125Z,11.40
2023-03-17T00:40:10.613Z,11.40
2023-03-17T00:42:37.107Z,11.40
2023-03-17T00:45:03.608Z,11.40
2023-03-17T00:47:30.089Z,11.50
2023-03-17T00:49:56.560Z,11.50
2023-03-17T00:52:23.013Z,11.40
2023-03-17T00:54:49.469Z,11.40
2023-03-17T00:57:15.953Z,11.40
2023-03-17T00:59:42.432Z,11.40
2023-03-17T01:02:08.965Z,11.40
2023-03-17T01:04:35.522Z,11.40
2023-03-17T01:07:02.034Z,11.40
2023-03-17T01:09:28.520Z,11.20
2023-03-17T01:11:55.071Z,11.20
2023-03-17T01:14:21.614Z,11.30
2023-03-17T01:16:48.206Z,11.30
2023-03-17T01:19:14.771Z,11.30
2023-03-17T01:21:41.249Z,11.30
2023-03-17T01:24:07.702Z,11.40
2023-03-17T01:26:34.184Z,11.40
2023-03-17T01:29:00.683Z,11.30
2023-03-17T01:31:27.220Z,11.40
2023-03-17T01:33:53.709Z,11.40
2023-03-17T01:36:20.193Z,11.40
2023-03-17T01:38:46.662Z,11.30
2023-03-17T01:41:13.134Z,11.30
2023-03-17T01:43:39.604Z,11.30
2023-03-17T01:46:06.084Z,11.30
2023-03-17T01:48:32.554Z,11.40
2023-03-17T01:50:59.045Z,11.30
2023-03-17T01:53:25.529Z,11.30
2023-03-17T01:55:52.003Z,11.30
2023-03-17T01:58:18.473Z,11.30
2023-03-17T02:00:44.973Z,11.30
2023-03-17T02:03:11.475Z,11.30
2023-03-17T02:11:18.740Z,11.30
2023-03-17T02:13:45.222Z,11.30
2023-03-17T02:16:11.771Z,11.30
2023-03-17T02:18:38.286Z,11.30
2023-03-17T02:21:04.775Z,11.30
2023-03-17T02:23:31.257Z,11.20
2023-03-17T02:25:57.761Z,11.30
2023-03-17T02:28:24.245Z,11.30
2023-03-17T02:30:50.801Z,11.40
2023-03-17T02:33:17.330Z,11.30
2023-03-17T02:35:43.850Z,11.40
2023-03-17T02:38:10.349Z,11.30
2023-03-17T02:40:36.821Z,11.30
2023-03-17T02:43:03.319Z,11.40
2023-03-17T02:45:29.797Z,11.30
2023-03-17T02:47:56.279Z,11.40
2023-03-17T02:50:22.750Z,11.40
2023-03-17T02:52:49.243Z,11.40
2023-03-17T02:55:15.753Z,11.30
2023-03-17T02:57:42.246Z,11.30
2023-03-17T03:00:08.741Z,11.30
2023-03-17T03:02:35.247Z,11.40
2023-03-17T03:05:01.799Z,11.30
2023-03-17T03:07:28.298Z,11.30
2023-03-17T03:09:54.796Z,11.30
2023-03-17T03:12:21.290Z,11.40
2023-03-17T03:14:47.783Z,11.40
2023-03-17T03:17:14.276Z,11.40
2023-03-17T03:19:40.758Z,11.40
2023-03-17T03:22:07.260Z,11.40
2023-03-17T03:24:33.730Z,11.40
2023-03-17T03:27:00.223Z,11.40
2023-03-17T03:29:26.715Z,11.30
2023-03-17T03:31:53.204Z,11.20
2023-03-17T03:34:19.708Z,11.40
2023-03-17T03:36:46.219Z,11.30
2023-03-17T03:39:14.419Z,11.30
2023-03-17T03:41:41.092Z,11.30
2023-03-17T03:44:07.573Z,11.20
2023-03-17T03:46:34.192Z,11.20
2023-03-17T03:49:00.720Z,11.20
2023-03-17T03:51:27.285Z,11.30
2023-03-17T03:53:53.777Z,11.30
2023-03-17T03:56:20.287Z,11.20
2023-03-17T03:58:46.785Z,11.30
2023-03-17T04:01:13.299Z,11.30
2023-03-17T04:03:39.802Z,11.40
2023-03-17T04:06:06.317Z,11.40
2023-03-17T04:08:32.806Z,11.30
2023-03-17T04:10:59.333Z,11.30
2023-03-17T04:13:25.837Z,11.40
2023-03-17T04:15:52.396Z,11.30
2023-03-17T04:18:18.909Z,11.30
2023-03-17T04:20:45.402Z,11.30
2023-03-17T04:23:11.924Z,11.30
2023-03-17T04:25:38.472Z,11.30
2023-03-17T04:28:04.977Z,11.30
2023-03-17T04:30:31.783Z,11.40
2023-03-17T04:32:58.629Z,11.40
2023-03-17T04:35:25.180Z,11.40
2023-03-17T04:37:51.662Z,11.30
2023-03-17T04:40:18.176Z,11.40
2023-03-17T04:42:44.670Z,11.40
2023-03-17T04:45:11.168Z,11.40
2023-03-17T04:47:37.678Z,11.40
2023-03-17T04:50:04.181Z,11.40
2023-03-17T04:52:30.670Z,11.40
2023-03-17T04:54:57.175Z,11.40
2023-03-17T04:57:23.654Z,11.50
2023-03-17T04:59:50.123Z,11.40
2023-03-17T05:02:16.594Z,11.30
2023-03-17T05:04:43.109Z,11.40
2023-03-17T05:07:09.625Z,11.40
2023-03-17T05:09:36.128Z,11.40
2023-03-17T05:12:02.613Z,11.30
2023-03-17T05:14:29.130Z,11.30
2023-03-17T05:16:55.660Z,11.30
2023-03-17T05:19:22.170Z,11.30
2023-03-17T05:21:48.679Z,11.30
2023-03-17T05:24:15.159Z,11.30
2023-03-17T05:26:41.638Z,11.30
2023-03-17T05:29:08.121Z,11.30
2023-03-17T05:31:34.658Z,11.30
2023-03-17T05:34:01.188Z,11.30
2023-03-17T05:36:27.693Z,11.30
2023-03-17T05:38:54.208Z,11.30
2023-03-17T05:41:20.734Z,11.30
2023-03-17T05:43:47.207Z,11.30
2023-03-17T05:46:13.830Z,11.40
2023-03-17T05:48:40.374Z,11.30
2023-03-17T05:51:06.872Z,11.30
2023-03-17T05:53:33.349Z,11.20
2023-03-17T05:55:59.860Z,11.40
2023-03-17T05:58:26.382Z,11.50
2023-03-17T06:00:52.880Z,11.40
2023-03-17T06:03:19.471Z,11.40
2023-03-17T06:05:46.034Z,11.50
2023-03-17T06:08:12.562Z,11.40
2023-03-17T06:10:39.063Z,11.50
2023-03-17T06:13:05.577Z,11.40
2023-03-17T06:15:32.458Z,11.40
2023-03-17T06:17:59.149Z,11.40
2023-03-17T06:20:25.651Z,11.30
2023-03-17T06:23:03.797Z,11.40
2023-03-17T06:25:31.460Z,11.30
2023-03-17T06:27:58.051Z,11.40
2023-03-17T06:30:24.542Z,11.40
2023-03-17T06:32:51.050Z,11.40
2023-03-17T06:35:17.538Z,11.40
2023-03-17T06:37:44.039Z,11.40
2023-03-17T06:40:10.513Z,11.30
2023-03-17T06:42:37.017Z,11.40
2023-03-17T06:45:03.494Z,11.40
2023-03-17T06:47:29.977Z,11.40
2023-03-17T06:49:56.460Z,11.40
2023-03-17T06:52:22.964Z,11.40
2023-03-17T06:54:49.440Z,11.30
2023-03-17T06:57:15.940Z,11.40
2023-03-17T06:59:42.414Z,11.40
2023-03-17T07:02:09.008Z,11.50
2023-03-17T07:04:35.604Z,11.50
2023-03-17T07:07:02.154Z,11.40
2023-03-17T07:09:28.640Z,11.40
2023-03-17T07:11:55.142Z,11.40
2023-03-17T07:14:21.686Z,11.40
2023-03-17T07:16:48.216Z,11.40
2023-03-17T07:19:14.766Z,11.50
2023-03-17T07:21:41.247Z,11.40
2023-03-17T07:24:07.740Z,11.50
2023-03-17T07:26:34.223Z,11.50
2023-03-17T07:29:00.728Z,11.50
2023-03-17T07:31:27.372Z,11.50
2023-03-17T07:33:55.845Z,11.50
2023-03-17T07:36:23.440Z,11.50
2023-03-17T07:38:49.906Z,11.60
2023-03-17T07:41:16.409Z,11.60
2023-03-17T07:43:42.878Z,11.60
2023-03-17T07:46:09.454Z,11.60
2023-03-17T07:48:35.971Z,11.50
2023-03-17T07:51:02.540Z,11.50
2023-03-17T07:53:29.245Z,11.60
2023-03-17T07:55:55.790Z,11.50
2023-03-17T07:58:22.288Z,11.50
2023-03-17T08:00:48.791Z,11.50
2023-03-17T08:03:15.324Z,11.60
2023-03-17T08:05:41.885Z,11.50
2023-03-17T08:08:08.366Z,11.50
2023-03-17T08:10:35.485Z,11.50
2023-03-17T08:13:02.263Z,11.40
2023-03-17T08:15:28.762Z,11.40
2023-03-17T08:17:55.251Z,11.40
2023-03-17T08:20:21.831Z,11.30
2023-03-17T08:22:48.370Z,11.30
2023-03-17T08:25:14.935Z,11.40
2023-03-17T08:27:41.444Z,11.40
2023-03-17T08:30:07.991Z,11.40
2023-03-17T08:32:34.608Z,11.40
2023-03-17T08:35:01.157Z,11.40
2023-03-17T08:37:27.647Z,11.30
2023-03-17T08:39:54.124Z,11.40
2023-03-17T08:42:20.602Z,11.40
2023-03-17T08:44:47.099Z,11.40
2023-03-17T08:47:13.617Z,11.40
2023-03-17T08:49:40.108Z,11.40
2023-03-17T08:52:06.617Z,11.40
2023-03-17T08:54:33.125Z,11.40
2023-03-17T08:56:59.626Z,11.40
2023-03-17T08:59:26.101Z,11.40
2023-03-17T09:01:52.688Z,11.40
2023-03-17T09:04:19.238Z,11.40
2023-03-17T09:07:01.957Z,11.40
2023-03-17T09:09:29.568Z,11.40
2023-03-17T09:11:56.061Z,11.40
2023-03-17T09:14:22.546Z,11.40
2023-03-17T09:16:49.046Z,11.40
2023-03-17T09:19:15.530Z,11.40
2023-03-17T09:21:42.040Z,11.40
2023-03-17T09:24:08.528Z,11.40
2023-03-17T09:26:35.057Z,11.40
2023-03-17T09:29:03.720Z,11.50
2023-03-17T09:31:30.391Z,11.40
2023-03-17T09:33:56.899Z,11.50
2023-03-17T09:36:23.396Z,11.50
2023-03-17T09:38:49.880Z,11.40
2023-03-17T09:41:16.375Z,11.50
2023-03-17T09:43:42.870Z,11.50
2023-03-17T09:46:09.470Z,11.60
2023-03-17T09:48:35.971Z,11.50
2023-03-17T09:51:02.482Z,11.50
2023-03-17T09:53:28.950Z,11.50
2023-03-17T09:55:55.470Z,11.60
2023-03-17T09:58:21.971Z,11.70
2023-03-17T10:00:48.483Z,11.60
2023-03-17T10:03:14.965Z,11.60
2023-03-17T10:05:41.576Z,11.70
2023-03-17T10:08:22.823Z,11.70
2023-03-17T10:10:54.549Z,11.70
2023-03-17T10:13:21.028Z,11.90
2023-03-17T10:15:47.607Z,11.80
2023-03-17T10:18:14.189Z,11.80
2023-03-17T10:20:40.697Z,11.90
2023-03-17T10:23:07.183Z,11.80
2023-03-17T10:25:34.076Z,11.90
2023-03-17T10:28:00.750Z,11.90
2023-03-17T10:30:27.253Z,12.00
2023-03-17T10:32:53.871Z,12.00
2023-03-17T10:35:20.418Z,12.00
2023-03-17T10:37:46.891Z,12.10
2023-03-17T10:40:13.397Z,12.10
2023-03-17T10:42:39.882Z,12.20
2023-03-17T10:45:06.380Z,12.20
2023-03-17T10:47:32.863Z,12.30
2023-03-17T10:49:59.328Z,12.30
2023-03-17T10:52:25.827Z,12.30
2023-03-17T10:54:52.334Z,12.30
2023-03-17T10:57:18.822Z,12.30
2023-03-17T10:59:45.319Z,12.30
2023-03-17T11:02:11.822Z,12.30
2023-03-17T11:04:38.300Z,12.30
2023-03-17T11:07:04.782Z,12.30
2023-03-17T11:09:31.257Z,12.20
2023-03-17T11:11:57.738Z,12.30
2023-03-17T11:14:24.214Z,12.30
2023-03-17T11:16:50.780Z,12.40
2023-03-17T11:19:17.261Z,12.30
2023-03-17T11:21:43.777Z,12.40
2023-03-17T11:24:10.277Z,12.40
2023-03-17T11:26:36.764Z,12.40
2023-03-17T11:29:03.268Z,12.40
2023-03-17T11:31:29.862Z,12.40
2023-03-17T11:33:56.363Z,12.40
2023-03-17T11:36:22.870Z,12.40
2023-03-17T11:38:49.333Z,12.40
2023-03-17T11:41:15.804Z,12.40
2023-03-17T11:43:42.290Z,12.40
2023-03-17T11:46:08.869Z,12.40
2023-03-17T11:48:35.413Z,12.40
2023-03-17T11:51:01.905Z,12.30
2023-03-17T11:53:28.390Z,12.30
2023-03-17T11:55:54.892Z,12.40
2023-03-17T11:58:21.373Z,12.40
2023-03-17T12:00:47.858Z,12.30
2023-03-17T12:03:14.372Z,12.30
2023-03-17T12:05:40.904Z,12.30
2023-03-17T12:08:07.391Z,12.30
2023-03-17T12:10:33.881Z,12.30
2023-03-17T12:13:00.362Z,12.30
2023-03-17T12:15:26.937Z,12.30
2023-03-17T12:17:53.425Z,12.30
2023-03-17T12:20:19.935Z,12.40
2023-03-17T12:22:46.678Z,12.40
2023-03-17T12:25:13.191Z,12.40
2023-03-17T12:27:39.679Z,12.40
2023-03-17T12:30:06.184Z,12.40
2023-03-17T12:32:32.678Z,12.40
2023-03-17T12:34:59.139Z,12.30
2023-03-17T12:37:25.615Z,12.30
2023-03-17T12:39:52.102Z,12.40
2023-03-17T12:42:18.623Z,12.40
2023-03-17T12:44:45.116Z,12.40
2023-03-17T12:47:11.626Z,12.40
2023-03-17T12:49:38.120Z,12.30
2023-03-17T12:52:04.607Z,12.40
2023-03-17T12:54:31.135Z,12.40
2023-03-17T12:56:57.635Z,12.40
2023-03-17T12:59:24.117Z,12.40
2023-03-17T13:01:50.617Z,12.50
2023-03-17T13:04:17.144Z,12.40
2023-03-17T13:06:43.683Z,12.40
2023-03-17T13:09:10.201Z,12.40
2023-03-17T13:11:36.714Z,12.50
2023-03-17T13:14:03.210Z,12.40
2023-03-17T13:16:29.728Z,12.50
2023-03-17T13:18:56.256Z,12.40
2023-03-17T13:21:22.769Z,12.50
2023-03-17T13:23:49.261Z,12.40
2023-03-17T13:26:15.773Z,12.40
2023-03-17T13:28:42.492Z,12.50
2023-03-17T13:31:09.099Z,12.40
2023-03-17T13:33:35.608Z,12.40
2023-03-17T13:36:02.129Z,12.50
2023-03-17T13:38:28.664Z,12.40
2023-03-17T13:40:55.139Z,12.40
2023-03-17T13:43:21.618Z,12.40
2023-03-17T13:45:48.128Z,12.50
2023-03-17T13:48:14.601Z,12.40
2023-03-17T13:50:41.131Z,12.50
2023-03-17T13:53:07.663Z,12.50
2023-03-17T13:55:34.587Z,12.50
2023-03-17T13:58:01.348Z,12.40
2023-03-17T14:00:27.970Z,12.40
2023-03-17T14:02:54.514Z,12.50
2023-03-17T14:05:21.018Z,12.40
2023-03-17T14:07:47.494Z,12.50
2023-03-17T14:10:14.000Z,12.40
2023-03-17T14:12:40.469Z,12.40
2023-03-17T14:15:08.406Z,12.40
2023-03-17T14:17:35.126Z,12.40
2023-03-17T14:20:01.604Z,12.40
2023-03-17T14:22:28.102Z,12.40
2023-03-17T14:24:54.581Z,12.40
2023-03-17T14:27:21.078Z,12.40
2023-03-17T14:29:47.573Z,12.30
2023-03-17T14:32:14.083Z,12.40
2023-03-17T14:34:40.556Z,12.40
2023-03-17T14:37:07.061Z,12.40
2023-03-17T14:39:33.551Z,12.40
2023-03-17T14:42:00.045Z,12.40
2023-03-17T14:44:26.552Z,12.40
2023-03-17T14:46:53.048Z,12.40
2023-03-17T14:49:19.526Z,12.40
2023-03-17T14:51:46.037Z,12.50
2023-03-17T14:54:12.538Z,12.50
2023-03-17T14:56:39.024Z,12.50
2023-03-17T14:59:05.493Z,12.40
2023-03-17T15:01:32.042Z,12.40
2023-03-17T15:03:58.555Z,12.40
2023-03-17T15:06:25.079Z,12.50
2023-03-17T15:08:51.582Z,12.40
2023-03-17T15:11:18.079Z,12.40
2023-03-17T15:13:44.619Z,12.50
2023-03-17T15:16:11.099Z,12.40
2023-03-17T15:18:37.567Z,12.40
2023-03-17T15:21:04.063Z,12.40
2023-03-17T15:23:30.575Z,12.40
2023-03-17T15:25:57.062Z,12.40
2023-03-17T15:28:23.552Z,12.40
2023-03-17T15:30:50.557Z,12.40
2023-03-17T15:33:17.221Z,12.40
2023-03-17T15:35:43.860Z,12.40
2023-03-17T15:38:10.358Z,12.40
2023-03-17T15:40:36.846Z,12.40
2023-03-17T15:43:03.349Z,12.40
2023-03-17T15:45:29.836Z,12.40
2023-03-17T15:47:56.298Z,12.50
2023-03-17T15:50:22.786Z,12.40
2023-03-17T15:52:49.248Z,12.40
2023-03-17T15:55:15.778Z,12.40
2023-03-17T15:57:46.176Z,12.50
2023-03-17T16:00:17.392Z,12.50
2023-03-17T16:02:43.875Z,12.50
2023-03-17T16:05:10.369Z,12.50
2023-03-17T16:07:36.862Z,12.50
2023-03-17T16:10:03.432Z,12.50
2023-03-17T16:12:29.965Z,12.50
2023-03-17T16:14:56.461Z,12.50
2023-03-17T16:17:23.872Z,12.50
2023-03-17T16:19:51.216Z,12.50
2023-03-17T16:22:17.707Z,12.50
2023-03-17T16:24:44.218Z,12.50
2023-03-17T16:27:10.722Z,12.50
2023-03-17T16:29:37.209Z,12.60
2023-03-17T16:32:03.707Z,12.70
2023-03-17T16:34:30.226Z,12.80
2023-03-17T16:36:56.721Z,12.90
2023-03-17T16:39:23.225Z,12.90
2023-03-17T16:41:49.723Z,12.90
2023-03-17T16:44:16.279Z,12.90
2023-03-17T16:46:42.791Z,12.90
2023-03-17T16:49:09.379Z,12.90
2023-03-17T16:51:35.876Z,12.90
2023-03-17T16:54:02.338Z,12.90
2023-03-17T16:56:28.882Z,12.90
2023-03-17T16:58:55.419Z,12.90
2023-03-17T17:01:21.969Z,12.90
2023-03-17T17:03:48.514Z,12.90
2023-03-17T17:06:15.005Z,12.90
2023-03-17T17:08:41.506Z,13.00
2023-03-17T17:11:07.997Z,13.00
2023-03-17T17:13:34.490Z,13.00
2023-03-17T17:16:01.034Z,13.00
2023-03-17T17:18:27.539Z,13.00
2023-03-17T17:20:54.023Z,13.00
2023-03-17T17:23:20.496Z,13.00
2023-03-17T17:25:46.970Z,13.00
2023-03-17T17:28:13.469Z,13.00
2023-03-17T17:30:39.947Z,13.00
2023-03-17T17:33:06.449Z,13.00
2023-03-17T17:35:33.190Z,13.00
2023-03-17T17:37:59.847Z,13.00
2023-03-17T17:40:26.377Z,13.00
2023-03-17T17:42:52.866Z,13.00
2023-03-17T17:45:19.365Z,13.00
2023-03-17T17:47:45.861Z,13.00
2023-03-17T17:50:12.383Z,13.00
2023-03-17T17:52:38.906Z,13.00
2023-03-17T17:55:05.419Z,13.00
2023-03-17T17:57:31.900Z,13.00
2023-03-17T17:59:58.405Z,13.00
2023-03-17T18:02:24.919Z,13.00
2023-03-17T18:04:51.484Z,13.00
2023-03-17T18:07:17.969Z,13.00
2023-03-17T18:09:44.474Z,13.00
2023-03-17T18:12:10.946Z,13.00
2023-03-17T18:14:37.484Z,13.10
2023-03-17T18:17:03.977Z,13.10
2023-03-17T18:19:30.508Z,13.00
2023-03-17T18:21:57.003Z,13.00
2023-03-17T18:24:23.480Z,13.00
2023-03-17T18:26:49.954Z,12.90
2023-03-17T18:29:16.425Z,12.90
2023-03-17T18:31:42.932Z,12.90
2023-03-17T18:34:10.546Z,12.90
2023-03-17T18:36:37.025Z,12.90
2023-03-17T18:39:03.509Z,12.90
2023-03-17T18:41:30.001Z,12.90
2023-03-17T18:43:56.484Z,13.00
2023-03-17T18:46:23.067Z,12.90
2023-03-17T18:48:49.582Z,12.90
2023-03-17T18:51:16.021Z,12.90
2023-03-17T18:53:42.492Z,12.90
2023-03-17T18:56:08.979Z,12.80
2023-03-17T18:58:35.473Z,12.90
2023-03-17T19:01:02.045Z,12.90
2023-03-17T19:03:28.651Z,12.90
2023-03-17T19:05:55.152Z,12.80
2023-03-17T19:08:21.628Z,12.90
2023-03-17T19:10:48.125Z,12.90
2023-03-17T19:13:14.609Z,12.90
2023-03-17T19:15:41.094Z,12.90
2023-03-17T19:18:07.587Z,12.90
2023-03-17T19:20:34.161Z,12.90
2023-03-17T19:23:00.655Z,12.90
2023-03-17T19:25:27.152Z,12.80
2023-03-17T19:27:53.627Z,12.90
2023-03-17T19:30:20.113Z,12.80
2023-03-17T19:32:46.602Z,12.80
2023-03-17T19:35:13.114Z,12.80
2023-03-17T19:37:39.603Z,12.90
2023-03-17T19:40:06.111Z,12.90
2023-03-17T19:42:32.633Z,12.90
2023-03-17T19:44:59.156Z,12.90
2023-03-17T19:47:25.667Z,12.90
2023-03-17T19:49:52.163Z,12.90
2023-03-17T19:52:18.653Z,13.00
2023-03-17T19:54:45.149Z,12.90
2023-03-17T19:57:11.634Z,13.00
2023-03-17T19:59:43.623Z,12.90
2023-03-17T20:02:10.114Z,12.90
2023-03-17T20:04:36.689Z,12.90
2023-03-17T20:07:03.190Z,12.80
2023-03-17T20:09:29.670Z,12.90
2023-03-17T20:11:56.196Z,12.90
2023-03-17T20:14:22.705Z,12.90
2023-03-17T20:16:49.204Z,12.90
2023-03-17T20:19:15.695Z,12.80
2023-03-17T20:21:42.180Z,12.90
2023-03-17T20:24:08.677Z,12.90
2023-03-17T20:26:35.160Z,12.90
2023-03-17T20:29:01.648Z,12.90
2023-03-17T20:31:28.186Z,12.90
2023-03-17T20:33:54.686Z,13.00
2023-03-17T20:36:21.176Z,12.90
2023-03-17T20:38:47.641Z,12.90
2023-03-17T20:41:14.167Z,12.90
2023-03-17T20:43:40.662Z,12.90
2023-03-17T20:46:07.208Z,12.90
2023-03-17T20:48:33.706Z,12.90
2023-03-17T20:51:00.252Z,12.90
2023-03-17T20:53:26.738Z,12.90
2023-03-17T20:55:53.230Z,12.90
2023-03-17T20:58:19.725Z,12.90
2023-03-17T21:00:46.229Z,12.90
2023-03-17T21:03:12.756Z,12.90
2023-03-17T21:05:39.302Z,12.80
2023-03-17T21:08:05.800Z,12.80
2023-03-17T21:10:32.447Z,12.80
2023-03-17T21:12:59.047Z,12.90
2023-03-17T21:15:25.542Z,12.80
2023-03-17T21:17:52.011Z,12.80
2023-03-17T21:20:18.504Z,12.80
2023-03-17T21:22:44.976Z,12.90
2023-03-17T21:25:11.471Z,12.80
2023-03-17T21:27:38.063Z,12.80
2023-03-17T21:30:04.566Z,12.80
2023-03-17T21:32:31.006Z,12.80
2023-03-17T21:34:57.505Z,12.90
2023-03-17T21:37:23.997Z,12.90
2023-03-17T21:39:50.423Z,12.90
2023-03-17T21:42:16.918Z,12.80
2023-03-17T21:44:43.425Z,12.80
2023-03-17T21:47:09.902Z,12.80
2023-03-17T21:49:36.386Z,12.90
2023-03-17T21:52:02.870Z,12.80
2023-03-17T21:54:29.368Z,12.90
2023-03-17T21:56:55.851Z,12.90
2023-03-17T21:59:22.330Z,12.90
2023-03-17T22:01:48.942Z,12.80
2023-03-17T22:04:15.435Z,12.90
2023-03-17T22:06:41.929Z,12.90
2023-03-17T22:09:08.413Z,12.90
2023-03-17T22:11:34.904Z,12.90
2023-03-17T22:14:01.418Z,13.00
2023-03-17T22:16:27.903Z,13.00
2023-03-17T22:18:54.405Z,13.00
2023-03-17T22:21:20.893Z,13.00
2023-03-17T22:23:47.376Z,13.00
2023-03-17T22:26:13.890Z,13.00
2023-03-17T22:28:40.382Z,12.90
2023-03-17T22:31:06.863Z,12.90
2023-03-17T22:33:33.349Z,12.90
2023-03-17T22:35:59.887Z,13.00
2023-03-17T22:38:26.453Z,13.00
2023-03-17T22:40:52.954Z,13.00
2023-03-17T22:43:19.434Z,13.00
2023-03-17T22:45:46.009Z,13.00
2023-03-17T22:48:12.525Z,13.00
2023-03-17T22:50:39.048Z,13.00
2023-03-17T22:53:05.530Z,13.00
2023-03-17T22:55:32.103Z,13.00
2023-03-17T22:57:58.620Z,13.00
2023-03-17T23:00:25.129Z,13.00
2023-03-17T23:02:51.616Z,13.00
2023-03-17T23:05:18.130Z,12.90
2023-03-17T23:07:51.906Z,12.90
2023-03-17T23:10:18.520Z,12.90
2023-03-17T23:12:45.014Z,13.00
2023-03-17T23:15:11.591Z,13.00
2023-03-17T23:17:38.163Z,13.00
2023-03-17T23:20:04.675Z,13.00
2023-03-17T23:22:31.175Z,13.00
2023-03-17T23:24:57.690Z,13.00
2023-03-17T23:27:24.183Z,13.00
2023-03-17T23:29:50.647Z,13.00
2023-03-17T23:32:17.149Z,13.00
2023-03-17T23:34:43.628Z,13.00
2023-03-17T23:37:10.108Z,13.00
2023-03-17T23:39:36.582Z,13.00
2023-03-17T23:42:03.075Z,13.00
2023-03-17T23:44:29.576Z,13.00
2023-03-17T23:46:56.087Z,13.00
2023-03-17T23:49:22.562Z,13.00
2023-03-17T23:51:49.042Z,13.00
2023-03-17T23:54:15.543Z,13.00
2023-03-17T23:56:42.048Z,13.00
2023-03-17T23:59:08.556Z,13.00
